Time;durP1;ratioP1;P1;durP2;ratioP2;P2;SDS_P1;SDS_P2;PMS_P1;PMS_P2;Temp;Humidity;BMP_temperature;BMP_pressure;BME280_temperature;BME280_humidity;BME280_pressure;Samples;Min_cycle;Max_cycle;Signal;HPM_P1;HPM_P2
2023/09/14 00:00:51;;;;;;;16.60;12.30;;;;;;;19.28;58.80;99619.46;105768;1253;60703;-76
2023/09/14 00:03:18;;;;;;;18.70;12.60;;;;;;;19.28;58.84;99618.67;105859;1251;73898;-76
2023/09/14 00:05:48;;;;;;;21.90;12.80;;;;;;;19.28;58.81;99616.28;105975;1257;68692;-78
2023/09/14 00:08:16;;;;;;;18.40;12.40;;;;;;;19.27;58.87;99614.80;105814;1251;70082;-76
2023/09/14 00:10:43;;;;;;;23.60;13.10;;;;;;;19.27;58.77;99615.55;105808;1254;60476;-74
2023/09/14 00:13:11;;;;;;;20.10;13.00;;;;;;;19.25;58.81;99611.74;105962;1252;60503;-74
2023/09/14 00:15:42;;;;;;;19.20;12.30;;;;;;;19.24;58.89;99612.19;105954;1251;72655;-75
2023/09/14 00:18:09;;;;;;;22.20;12.60;;;;;;;19.23;58.85;99611.78;105865;1251;70985;-75
2023/09/14 00:20:37;;;;;;;16.90;12.10;;;;;;;19.22;58.93;99606.34;105908;1256;72716;-75
2023/09/14 00:23:04;;;;;;;20.90;13.00;;;;;;;19.21;58.94;99604.48;106084;1251;60438;-75
2023/09/14 00:25:31;;;;;;;15.20;12.70;;;;;;;19.21;58.93;99605.75;105932;1256;60350;-76
2023/09/14 00:27:59;;;;;;;17.80;12.50;;;;;;;19.21;58.96;99604.56;105883;1258;73820;-75
2023/09/14 00:30:27;;;;;;;21.90;12.20;;;;;;;19.21;58.88;99602.85;107365;1258;69291;-73
2023/09/14 00:32:55;;;;;;;15.50;11.40;;;;;;;19.22;58.79;99605.42;107711;1253;70706;-76
2023/09/14 00:35:24;;;;;;;22.30;13.00;;;;;;;19.22;58.77;99603.97;107128;1253;60543;-75
2023/09/14 00:37:51;;;;;;;20.90;12.60;;;;;;;19.23;58.69;99601.77;105621;1254;60384;-75
2023/09/14 00:40:19;;;;;;;23.60;12.50;;;;;;;19.22;58.76;99604.88;105790;1253;72643;-76
2023/09/14 00:42:48;;;;;;;19.60;13.00;;;;;;;19.21;58.95;99603.28;105863;1253;69959;-75
2023/09/14 00:45:16;;;;;;;18.60;13.00;;;;;;;19.16;59.15;99598.77;105622;1254;72442;-74
2023/09/14 00:47:45;;;;;;;19.50;13.80;;;;;;;19.10;59.33;99593.73;105845;1253;60462;-75
2023/09/14 00:50:17;;;;;;;20.30;13.40;;;;;;;19.05;59.49;99587.14;105808;1251;60490;-75
2023/09/14 00:52:48;;;;;;;20.30;13.60;;;;;;;19.00;59.62;99583.21;105691;1258;74152;-76
2023/09/14 00:55:17;;;;;;;23.60;13.40;;;;;;;18.96;59.68;99582.20;106021;1259;69627;-75
2023/09/14 00:57:47;;;;;;;19.40;14.00;;;;;;;18.92;59.93;99579.71;108540;1251;71429;-76
2023/09/14 01:00:16;;;;;;;17.20;12.00;;;;;;;18.89;60.07;99577.48;106060;1253;60444;-76
2023/09/14 01:02:44;;;;;;;21.00;13.10;;;;;;;18.86;60.26;99573.79;105842;1252;60553;-76
2023/09/14 01:05:14;;;;;;;19.50;13.30;;;;;;;18.82;60.40;99574.20;105774;1253;72679;-75
2023/09/14 01:07:42;;;;;;;26.40;13.10;;;;;;;18.76;60.63;99572.67;105844;1257;69178;-76
2023/09/14 01:10:15;;;;;;;19.30;14.10;;;;;;;18.71;60.70;99573.02;105954;1253;72512;-77
2023/09/14 01:12:43;;;;;;;;;;;;;;;18.68;60.84;99570.13;105820;1253;60421;-76
2023/09/14 01:15:33;;;;;;;26.10;14.20;;;;;;;18.65;61.05;99570.77;105799;1251;60624;-76
2023/09/14 01:18:32;;;;;;;19.30;13.40;;;;;;;18.62;61.23;99572.56;105720;1257;73697;-76
2023/09/14 01:21:08;;;;;;;20.90;13.50;;;;;;;18.59;61.39;99568.95;105813;1251;70513;-74
2023/09/14 01:23:55;;;;;;;24.40;13.80;;;;;;;18.57;61.50;99572.73;105689;1251;72584;-77
2023/09/14 01:26:23;;;;;;;20.40;13.50;;;;;;;18.56;61.52;99575.73;105916;1251;60426;-77
2023/09/14 01:28:50;;;;;;;19.50;14.50;;;;;;;18.55;61.86;99582.61;105795;1257;60647;-77
2023/09/14 01:31:18;;;;;;;23.30;14.40;;;;;;;18.52;62.00;99582.88;105962;1253;72636;-77
2023/09/14 01:33:48;;;;;;;20.40;13.80;;;;;;;18.48;62.04;99579.49;105856;1253;69950;-77
2023/09/14 01:36:16;;;;;;;20.50;15.00;;;;;;;18.44;62.25;99574.45;106021;1253;71805;-77
2023/09/14 01:38:44;;;;;;;19.80;13.80;;;;;;;18.40;62.36;99569.83;106995;1251;60461;-75
2023/09/14 01:41:12;;;;;;;20.40;13.50;;;;;;;18.35;62.60;99559.70;108262;1251;60280;-76
2023/09/14 01:43:44;;;;;;;20.20;13.20;;;;;;;18.31;62.77;99557.21;108393;1251;72580;-76
2023/09/14 01:46:11;;;;;;;21.40;14.30;;;;;;;18.28;62.97;99555.46;106617;1252;70128;-75
2023/09/14 01:48:39;;;;;;;22.10;14.20;;;;;;;18.25;62.92;99552.64;106726;1254;71413;-77
2023/09/14 01:51:06;;;;;;;18.90;13.80;;;;;;;18.23;63.02;99554.36;105940;1253;60457;-77
2023/09/14 01:53:33;;;;;;;18.40;12.60;;;;;;;18.22;63.02;99553.98;105717;1251;60423;-78
2023/09/14 01:56:01;;;;;;;16.70;13.40;;;;;;;18.21;63.09;99543.75;105752;1258;73817;-77
2023/09/14 01:58:29;;;;;;;26.80;13.60;;;;;;;18.20;63.06;99539.25;105931;1253;69049;-78
2023/09/14 02:00:57;;;;;;;20.70;14.00;;;;;;;18.20;63.05;99539.95;105905;1254;71053;-78
2023/09/14 02:03:26;;;;;;;20.30;13.30;;;;;;;18.21;62.85;99539.86;105722;1258;60429;-78
2023/09/14 02:05:58;;;;;;;21.90;12.60;;;;;;;18.21;62.77;99538.41;105920;1252;60349;-78
2023/09/14 02:08:26;;;;;;;20.00;13.60;;;;;;;18.20;62.65;99537.60;105858;1252;72625;-75
2023/09/14 02:10:53;;;;;;;19.70;12.90;;;;;;;18.20;62.48;99537.75;105893;1252;68926;-78
2023/09/14 02:13:21;;;;;;;19.80;11.40;;;;;;;18.21;62.36;99538.90;106391;1251;72664;-76
2023/09/14 02:15:49;;;;;;;18.70;12.90;;;;;;;18.21;62.27;99540.56;108058;1251;62096;-77
2023/09/14 02:18:17;;;;;;;16.20;12.70;;;;;;;18.21;62.37;99541.02;106491;1251;60399;-76
2023/09/14 02:20:44;;;;;;;20.40;13.50;;;;;;;18.21;62.34;99533.65;108959;1251;72601;-78
2023/09/14 02:23:15;;;;;;;18.80;13.50;;;;;;;18.22;62.42;99533.08;108690;1252;68931;-75
2023/09/14 02:25:43;;;;;;;17.90;12.80;;;;;;;18.21;62.67;99537.38;105990;1257;71268;-75
2023/09/14 02:28:11;;;;;;;20.70;13.00;;;;;;;18.15;62.77;99535.61;105888;1251;60526;-78
2023/09/14 02:30:39;;;;;;;18.90;13.10;;;;;;;18.11;62.83;99539.02;105919;1251;60898;-79
2023/09/14 02:33:07;;;;;;;20.60;12.90;;;;;;;18.07;63.01;99539.84;105759;1253;72601;-78
2023/09/14 02:35:35;;;;;;;20.80;12.70;;;;;;;18.02;63.14;99534.34;106009;1257;69222;-77
2023/09/14 02:38:03;;;;;;;17.00;13.40;;;;;;;17.97;63.36;99538.16;105912;1253;72803;-77
2023/09/14 02:40:31;;;;;;;22.90;13.20;;;;;;;17.91;63.66;99541.52;106080;1253;60503;-79
2023/09/14 02:42:59;;;;;;;18.70;13.90;;;;;;;17.86;63.81;99544.34;106183;1253;60523;-77
2023/09/14 02:45:27;;;;;;;25.30;15.10;;;;;;;17.82;64.27;99553.11;106483;1253;72583;-77
2023/09/14 02:47:54;;;;;;;23.60;15.00;;;;;;;17.75;64.48;99547.27;106552;1253;70427;-77
2023/09/14 02:50:21;;;;;;;19.20;14.70;;;;;;;17.69;64.74;99546.89;107428;1253;71044;-76
2023/09/14 02:52:49;;;;;;;21.00;14.00;;;;;;;17.64;64.80;99552.71;106899;1257;60537;-76
2023/09/14 02:55:17;;;;;;;20.40;13.20;;;;;;;17.62;64.78;99549.45;106235;1253;60722;-77
2023/09/14 02:57:44;;;;;;;79.70;58.10;;;;;;;17.63;64.85;99544.86;106197;1253;71941;-75
2023/09/14 03:00:17;;;;;;;29.90;19.90;;;;;;;17.63;64.81;99544.13;106211;1253;70329;-77
2023/09/14 03:02:45;;;;;;;21.60;15.50;;;;;;;17.63;64.83;99544.00;105670;1256;73519;-78
2023/09/14 03:05:13;;;;;;;18.70;14.70;;;;;;;17.62;64.76;99541.25;105850;1253;60536;-79
2023/09/14 03:07:40;;;;;;;20.90;13.50;;;;;;;17.61;64.83;99538.07;105781;1257;60480;-79
2023/09/14 03:10:09;;;;;;;20.10;13.90;;;;;;;17.58;64.72;99541.04;105742;1253;73873;-77
2023/09/14 03:12:36;;;;;;;19.20;13.10;;;;;;;17.56;64.81;99542.86;105896;1253;70739;-78
2023/09/14 03:15:05;;;;;;;19.30;14.40;;;;;;;17.54;64.92;99542.41;105780;1255;72736;-78
2023/09/14 03:17:32;;;;;;;19.90;12.90;;;;;;;17.53;64.91;99550.83;105942;1253;60430;-79
2023/09/14 03:20:00;;;;;;;20.30;16.00;;;;;;;17.52;65.10;99555.91;105878;1257;60372;-78
2023/09/14 03:22:28;;;;;;;22.70;14.50;;;;;;;17.52;65.15;99560.23;105955;1253;73874;-78
2023/09/14 03:24:56;;;;;;;20.50;14.10;;;;;;;17.53;65.18;99561.35;105834;1254;70008;-79
2023/09/14 03:27:24;;;;;;;20.90;13.60;;;;;;;17.54;65.43;99562.30;106065;1253;71131;-79
2023/09/14 03:29:51;;;;;;;15.30;12.00;;;;;;;17.54;65.47;99561.01;106074;1254;60540;-76
2023/09/14 03:32:19;;;;;;;15.20;12.20;;;;;;;17.61;65.48;99560.89;108023;1253;60027;-75
2023/09/14 03:34:47;;;;;;;20.20;12.90;;;;;;;17.72;65.37;99559.42;108103;1253;72555;-77
2023/09/14 03:37:14;;;;;;;19.90;12.50;;;;;;;17.73;65.30;99554.23;105998;1257;69979;-79
2023/09/14 03:39:45;;;;;;;19.50;13.20;;;;;;;17.72;65.33;99557.07;106005;1254;72459;-80
2023/09/14 03:42:13;;;;;;;17.70;12.30;;;;;;;17.72;65.22;99552.58;105712;1257;60444;-78
2023/09/14 03:44:41;;;;;;;22.90;14.00;;;;;;;17.72;65.08;99557.61;105921;1256;60529;-77
2023/09/14 03:47:09;;;;;;;19.60;13.60;;;;;;;17.73;64.94;99562.64;105867;1253;72987;-79
2023/09/14 03:49:36;;;;;;;17.10;12.80;;;;;;;17.74;64.80;99562.52;106224;1253;70534;-78
2023/09/14 03:52:04;;;;;;;19.50;12.40;;;;;;;17.74;64.68;99562.48;105819;1256;72660;-77
2023/09/14 03:54:32;;;;;;;16.50;13.00;;;;;;;17.73;64.76;99564.92;106025;1253;60499;-78
2023/09/14 03:57:00;;;;;;;29.80;13.20;;;;;;;17.73;64.77;99565.04;107280;1253;60353;-78
2023/09/14 03:59:27;;;;;;;20.30;12.40;;;;;;;17.71;64.88;99565.95;108834;1253;71420;-78
2023/09/14 04:01:55;;;;;;;19.40;13.50;;;;;;;17.72;64.86;99562.65;108290;1253;68784;-80
2023/09/14 04:04:23;;;;;;;17.80;11.80;;;;;;;17.73;64.83;99561.45;106028;1252;72721;-78
2023/09/14 04:06:51;;;;;;;21.70;12.50;;;;;;;17.72;64.80;99561.29;105719;1256;60440;-79
2023/09/14 04:09:19;;;;;;;18.90;12.70;;;;;;;17.73;64.76;99563.89;105852;1258;60359;-78
2023/09/14 04:11:47;;;;;;;16.70;13.20;;;;;;;17.73;64.71;99563.67;106834;1253;72504;-79
2023/09/14 04:14:14;;;;;;;18.10;12.70;;;;;;;17.75;64.68;99558.21;106089;1258;68945;-79
2023/09/14 04:16:43;;;;;;;17.80;12.50;;;;;;;17.76;64.67;99558.50;105824;1253;71392;-79
2023/09/14 04:19:12;;;;;;;22.50;12.80;;;;;;;17.77;64.67;99556.17;105721;1253;60938;-79
2023/09/14 04:21:43;;;;;;;19.80;12.70;;;;;;;17.79;64.51;99554.23;105786;1253;60480;-78
2023/09/14 04:24:11;;;;;;;21.60;12.70;;;;;;;17.79;64.38;99553.70;105862;1253;72643;-79
2023/09/14 04:26:39;;;;;;;15.50;11.30;;;;;;;17.80;64.39;99552.09;105966;1253;70121;-79
2023/09/14 04:29:06;;;;;;;20.20;12.20;;;;;;;17.85;64.28;99551.98;105809;1253;71427;-80
2023/09/14 04:31:34;;;;;;;16.60;12.10;;;;;;;17.87;64.29;99552.38;105750;1258;60546;-80
2023/09/14 04:34:02;;;;;;;21.60;12.10;;;;;;;17.91;64.24;99551.65;106589;1257;60329;-78
2023/09/14 04:36:30;;;;;;;17.70;12.30;;;;;;;17.96;64.12;99551.59;106987;1253;73823;-77
2023/09/14 04:39:00;;;;;;;19.10;12.70;;;;;;;18.03;63.98;99550.80;106783;1253;69294;-78
2023/09/14 04:41:28;;;;;;;17.00;12.70;;;;;;;18.10;63.77;99551.48;105927;1260;71557;-77
2023/09/14 04:43:55;;;;;;;19.00;12.80;;;;;;;18.16;63.24;99552.36;106277;1258;60547;-80
2023/09/14 04:46:23;;;;;;;18.00;12.50;;;;;;;18.21;63.12;99552.73;106841;1253;60543;-78
2023/09/14 04:48:50;;;;;;;18.50;13.00;;;;;;;18.27;62.97;99557.55;106556;1253;73805;-78
2023/09/14 04:51:20;;;;;;;16.60;12.40;;;;;;;18.34;62.63;99557.27;107156;1253;71278;-79
2023/09/14 04:53:48;;;;;;;23.80;11.90;;;;;;;18.40;62.40;99555.14;106416;1257;72743;-81
2023/09/14 04:56:15;;;;;;;18.00;12.80;;;;;;;18.48;62.21;99556.41;106106;1256;61058;-78
2023/09/14 04:58:43;;;;;;;21.40;14.00;;;;;;;18.53;62.07;99554.54;106253;1253;60573;-78
2023/09/14 05:01:11;;;;;;;17.00;12.60;;;;;;;18.58;61.99;99556.47;106527;1253;72402;-77
2023/09/14 05:03:40;;;;;;;18.10;12.60;;;;;;;18.64;62.01;99556.73;106793;1253;68891;-77
2023/09/14 05:06:09;;;;;;;14.60;11.40;;;;;;;18.69;61.82;99553.92;107603;1256;72215;-77
2023/09/14 05:08:36;;;;;;;18.20;13.00;;;;;;;18.76;61.32;99554.75;107321;1253;60444;-80
2023/09/14 05:11:04;;;;;;;22.00;12.40;;;;;;;18.83;60.92;99556.98;106527;1253;60597;-78
2023/09/14 05:13:32;;;;;;;19.40;13.50;;;;;;;18.89;60.44;99554.65;106835;1253;73822;-82
2023/09/14 05:16:00;;;;;;;22.10;14.20;;;;;;;18.95;60.35;99550.69;105925;1253;69946;-80
2023/09/14 05:18:28;;;;;;;16.70;12.40;;;;;;;19.03;60.11;99549.70;105961;1253;71825;-80
2023/09/14 05:20:55;;;;;;;20.50;13.30;;;;;;;19.14;60.07;99550.81;105869;1255;60430;-80
2023/09/14 05:23:23;;;;;;;20.90;13.70;;;;;;;19.27;59.78;99550.87;105896;1256;60358;-79
2023/09/14 05:25:50;;;;;;;19.60;13.40;;;;;;;19.37;59.47;99549.35;105619;1260;74069;-77
2023/09/14 05:28:18;;;;;;;23.00;13.80;;;;;;;19.46;59.00;99544.56;105878;1259;70307;-80
2023/09/14 05:30:45;;;;;;;19.60;13.40;;;;;;;19.56;58.79;99546.98;105801;1253;71481;-77
2023/09/14 05:33:14;;;;;;;19.80;13.30;;;;;;;19.68;58.43;99549.86;105728;1256;60524;-77
2023/09/14 05:35:43;;;;;;;18.50;13.30;;;;;;;19.79;57.90;99551.61;106075;1255;60353;-79
2023/09/14 05:38:11;;;;;;;18.80;11.50;;;;;;;19.90;57.55;99556.54;105901;1258;73836;-78
2023/09/14 05:40:39;;;;;;;24.70;13.00;;;;;;;19.99;56.94;99551.85;105621;1261;69256;-79
2023/09/14 05:43:07;;;;;;;24.00;13.30;;;;;;;20.04;56.91;99549.86;105682;1259;72736;-80
2023/09/14 05:45:34;;;;;;;18.10;13.20;;;;;;;20.12;56.73;99550.95;105894;1253;60426;-79
2023/09/14 05:48:04;;;;;;;23.20;13.70;;;;;;;20.22;56.54;99550.52;105778;1258;60340;-77
2023/09/14 05:50:34;;;;;;;20.10;14.50;;;;;;;20.28;56.37;99545.22;105939;1253;73989;-77
2023/09/14 05:53:02;;;;;;;22.00;13.80;;;;;;;20.31;56.36;99547.21;106038;1253;68779;-79
2023/09/14 05:55:30;;;;;;;19.40;12.50;;;;;;;20.33;56.39;99547.38;105962;1253;71256;-80
2023/09/14 05:57:57;;;;;;;18.70;12.50;;;;;;;20.33;56.51;99550.02;106004;1253;60446;-77
2023/09/14 06:00:25;;;;;;;20.30;13.00;;;;;;;20.37;56.48;99557.23;105972;1252;60416;-80
2023/09/14 06:02:53;;;;;;;25.50;12.60;;;;;;;20.46;56.52;99559.23;105998;1253;73316;-79
2023/09/14 06:05:20;;;;;;;17.20;13.30;;;;;;;20.54;56.33;99554.77;106020;1253;70146;-82
2023/09/14 06:07:53;;;;;;;19.20;13.20;;;;;;;20.63;56.33;99559.41;106551;1253;71212;-80
2023/09/14 06:10:21;;;;;;;20.00;13.80;;;;;;;20.74;56.21;99552.36;106464;1254;60541;-80
2023/09/14 06:12:50;;;;;;;19.20;12.80;;;;;;;20.89;56.08;99550.64;107972;1252;60444;-79
2023/09/14 06:15:17;;;;;;;16.90;13.10;;;;;;;21.02;55.97;99546.46;108970;1253;74562;-80
2023/09/14 06:17:46;;;;;;;17.60;13.00;;;;;;;21.11;55.98;99544.27;108418;1253;70386;-79
2023/09/14 06:20:14;;;;;;;22.10;13.20;;;;;;;21.18;55.97;99545.95;106436;1253;71383;-79
2023/09/14 06:22:42;;;;;;;24.60;13.00;;;;;;;21.27;55.88;99542.86;106116;1257;60556;-79
2023/09/14 06:25:09;;;;;;;24.00;14.10;;;;;;;21.33;55.86;99540.98;106668;1253;60493;-79
2023/09/14 06:27:37;;;;;;;19.30;13.00;;;;;;;21.37;56.02;99531.64;109138;1253;72553;-80
2023/09/14 06:30:06;;;;;;;20.20;13.40;;;;;;;21.41;56.22;99532.52;108643;1253;68663;-79
2023/09/14 06:32:33;;;;;;;22.70;13.10;;;;;;;21.44;56.38;99536.47;106081;1253;72523;-79
2023/09/14 06:35:01;;;;;;;22.80;13.10;;;;;;;21.45;56.49;99536.45;106023;1253;60626;-79
2023/09/14 06:37:29;;;;;;;20.50;12.00;;;;;;;21.47;56.63;99537.81;106050;1259;59124;-78
2023/09/14 06:39:56;;;;;;;18.50;12.40;;;;;;;21.44;56.79;99540.63;106025;1253;73923;-77
2023/09/14 06:42:24;;;;;;;21.20;13.00;;;;;;;21.43;56.92;99541.25;105883;1253;72196;-79
2023/09/14 06:44:51;;;;;;;17.40;12.60;;;;;;;21.45;57.02;99545.41;106027;1253;71431;-78
2023/09/14 06:47:18;;;;;;;16.10;12.10;;;;;;;21.47;57.10;99541.83;105652;1256;457026;-78
2023/09/14 06:51:36;;;;;;;19.20;12.20;;;;;;;21.61;57.20;99539.84;102790;1295;601107;-80
2023/09/14 06:54:04;;;;;;;17.10;12.90;;;;;;;21.67;57.30;99536.45;105037;1267;59240;-80
2023/09/14 06:56:32;;;;;;;18.90;12.50;;;;;;;21.77;57.32;99536.19;105100;1269;59244;-80
2023/09/14 06:58:59;;;;;;;15.70;12.10;;;;;;;21.88;57.25;99533.46;107049;1256;70175;-81
2023/09/14 07:01:40;;;;;;;18.90;11.50;;;;;;;22.01;57.17;99528.38;107524;1254;70590;-80
2023/09/14 07:05:04;;;;;;;20.30;13.20;;;;;;;22.24;56.87;99524.29;107698;1257;177751;-81
2023/09/14 07:07:32;;;;;;;16.10;12.80;;;;;;;22.41;56.52;99526.47;106085;1254;60946;-82
2023/09/14 07:09:59;;;;;;;16.30;12.20;;;;;;;22.53;56.26;99523.16;106179;1255;60124;-81
2023/09/14 07:12:27;;;;;;;17.60;12.20;;;;;;;22.64;56.25;99524.10;106041;1258;71935;-81
2023/09/14 07:14:54;;;;;;;18.40;12.70;;;;;;;22.81;56.17;99520.94;105966;1254;68732;-81
2023/09/14 07:17:22;;;;;;;21.10;11.80;;;;;;;22.97;55.82;99521.75;106324;1256;74889;-81
2023/09/14 07:19:50;;;;;;;13.00;10.60;;;;;;;23.08;55.60;99524.17;106677;1260;60057;-80
2023/09/14 07:22:18;;;;;;;13.80;10.40;;;;;;;23.15;55.61;99522.30;108952;1253;59643;-81
2023/09/14 07:24:46;;;;;;;22.90;12.80;;;;;;;23.17;55.46;99521.89;108435;1254;71791;-80
2023/09/14 07:27:15;;;;;;;18.40;11.20;;;;;;;23.25;55.48;99525.42;107850;1256;68872;-81
2023/09/14 07:29:43;;;;;;;16.40;11.50;;;;;;;23.37;55.14;99518.27;106409;1255;71361;-82
2023/09/14 07:32:11;;;;;;;19.30;12.40;;;;;;;23.46;55.11;99518.13;106390;1257;60062;-81
2023/09/14 07:34:39;;;;;;;18.60;11.90;;;;;;;23.54;54.79;99510.81;106127;1255;59888;-79
2023/09/14 07:37:06;;;;;;;22.90;11.80;;;;;;;23.67;54.73;99515.80;105933;1254;72098;-78
2023/09/14 07:39:33;;;;;;;19.20;11.10;;;;;;;23.84;54.42;99514.58;105976;1258;67723;-80
2023/09/14 07:42:01;;;;;;;19.80;11.20;;;;;;;23.97;54.08;99512.93;105878;1254;72592;-81
2023/09/14 07:44:28;;;;;;;15.40;10.90;;;;;;;24.08;53.82;99512.95;106151;1259;60900;-80
2023/09/14 07:46:56;;;;;;;19.10;11.40;;;;;;;24.22;53.64;99518.77;106146;1255;59551;-81
2023/09/14 07:49:23;;;;;;;19.60;12.00;;;;;;;24.39;53.39;99514.02;106170;1258;71832;-80
2023/09/14 07:51:51;;;;;;;15.50;11.10;;;;;;;24.55;53.06;99512.91;105916;1254;69674;-81
2023/09/14 07:54:20;;;;;;;19.70;11.60;;;;;;;24.68;52.75;99512.27;105819;1260;72462;-81
2023/09/14 07:56:48;;;;;;;18.70;11.40;;;;;;;24.78;52.42;99511.41;106314;1260;59775;-81
2023/09/14 07:59:15;;;;;;;17.30;11.20;;;;;;;24.79;52.43;99513.92;106590;1254;59701;-80
2023/09/14 08:01:43;;;;;;;13.50;10.80;;;;;;;24.76;52.43;99510.92;106301;1259;73085;-77
2023/09/14 08:04:10;;;;;;;17.90;12.80;;;;;;;24.69;52.51;99504.77;107197;1254;68743;-82
2023/09/14 08:06:38;;;;;;;16.50;11.40;;;;;;;24.63;52.60;99509.42;106540;1260;71695;-71
2023/09/14 08:09:06;;;;;;;18.00;11.30;;;;;;;24.63;52.69;99510.34;106648;1259;59705;-78
2023/09/14 08:11:35;;;;;;;14.70;11.50;;;;;;;24.71;52.75;99509.66;106774;1261;59928;-80
2023/09/14 08:14:03;;;;;;;18.30;11.70;;;;;;;24.86;52.45;99511.94;106586;1260;75480;-78
2023/09/14 08:16:32;;;;;;;19.10;12.10;;;;;;;24.99;52.10;99513.97;107376;1260;70260;-79
2023/09/14 08:19:00;;;;;;;15.60;11.30;;;;;;;25.13;52.00;99515.30;107650;1254;72574;-81
2023/09/14 08:21:27;;;;;;;16.70;10.90;;;;;;;25.27;51.74;99516.08;109021;1252;58850;-82
2023/09/14 08:23:55;;;;;;;18.40;11.60;;;;;;;25.47;51.79;99520.41;108753;1255;59131;-78
2023/09/14 08:26:22;;;;;;;14.80;11.00;;;;;;;25.68;51.34;99517.30;106505;1259;71577;-78
2023/09/14 08:28:51;;;;;;;21.70;11.60;;;;;;;25.89;50.92;99517.72;106692;1260;70630;-81
2023/09/14 08:31:19;;;;;;;17.70;11.20;;;;;;;26.09;50.58;99520.85;107675;1256;71472;-81
2023/09/14 08:33:47;;;;;;;14.40;11.50;;;;;;;26.26;49.98;99519.44;106515;1259;59669;-78
2023/09/14 08:36:16;;;;;;;18.70;11.40;;;;;;;26.37;49.87;99519.77;106623;1259;59607;-78
2023/09/14 08:38:43;;;;;;;19.50;11.30;;;;;;;26.45;49.31;99519.38;105843;1259;73997;-79
2023/09/14 08:41:21;;;;;;;17.00;11.50;;;;;;;26.47;49.50;99518.21;105819;1260;71567;-78
2023/09/14 08:43:48;;;;;;;16.50;11.30;;;;;;;26.52;49.20;99513.19;105937;1260;70744;-77
2023/09/14 08:46:17;;;;;;;17.00;11.50;;;;;;;26.52;49.11;99508.07;105819;1260;60000;-77
2023/09/14 08:48:45;;;;;;;17.80;11.20;;;;;;;26.51;49.10;99505.28;106002;1260;59978;-77
2023/09/14 08:51:13;;;;;;;18.80;11.20;;;;;;;26.57;49.19;99511.64;105975;1258;73137;-77
2023/09/14 08:53:41;;;;;;;20.70;11.50;;;;;;;26.64;48.79;99511.24;105957;1254;70317;-78
2023/09/14 08:56:09;;;;;;;18.70;11.90;;;;;;;26.75;48.78;99508.63;105671;1254;72632;-77
2023/09/14 08:58:36;;;;;;;18.60;11.10;;;;;;;26.93;48.67;99513.23;105788;1260;59633;-77
2023/09/14 09:01:04;;;;;;;22.90;12.00;;;;;;;27.11;48.47;99511.02;105873;1254;60165;-79
2023/09/14 09:03:34;;;;;;;18.20;11.90;;;;;;;27.37;48.33;99519.38;105703;1254;72946;-79
2023/09/14 09:06:01;;;;;;;15.40;11.10;;;;;;;27.72;47.64;99518.74;105742;1259;69278;-79
2023/09/14 09:08:29;;;;;;;15.10;10.70;;;;;;;28.15;46.99;99516.38;105798;1269;71483;-79
2023/09/14 09:10:56;;;;;;;18.70;11.10;;;;;;;28.58;46.28;99510.46;105744;1256;60146;-79
2023/09/14 09:13:36;;;;;;;15.40;10.80;;;;;;;29.08;45.85;99506.39;105831;1254;60017;-77
2023/09/14 09:16:03;;;;;;;19.70;11.10;;;;;;;29.75;45.10;99507.78;105658;1261;73070;-78
2023/09/14 09:18:31;;;;;;;20.40;11.00;;;;;;;30.35;44.04;99502.33;105632;1260;69384;-79
2023/09/14 09:21:05;;;;;;;16.30;10.90;;;;;;;30.85;42.84;99497.55;105901;1260;71440;-79
2023/09/14 09:23:34;;;;;;;11.40;10.10;;;;;;;31.21;42.16;99491.23;105996;1260;59637;-78
2023/09/14 09:26:01;;;;;;;18.60;11.00;;;;;;;31.48;42.11;99496.84;105911;1253;60191;-79
2023/09/14 09:28:29;;;;;;;17.80;10.60;;;;;;;31.85;40.86;99496.17;105826;1260;73045;-79
2023/09/14 09:30:57;;;;;;;13.50;10.70;;;;;;;32.01;40.60;99488.98;105816;1259;69197;-77
2023/09/14 09:33:35;;;;;;;12.60;10.50;;;;;;;32.14;40.53;99488.63;105942;1260;71276;-75
2023/09/14 09:36:23;;;;;;;13.80;11.30;;;;;;;32.40;39.95;99486.89;106118;1259;59722;-76
2023/09/14 09:38:50;;;;;;;13.10;9.90;;;;;;;32.73;39.62;99483.90;105935;1261;60979;-76
2023/09/14 09:41:18;;;;;;;14.80;10.30;;;;;;;33.15;39.17;99485.94;105381;1263;73276;-79
2023/09/14 09:43:45;;;;;;;12.70;9.90;;;;;;;33.61;38.65;99489.45;105667;1260;70757;-79
2023/09/14 09:46:14;;;;;;;12.70;9.60;;;;;;;33.93;38.02;99493.30;106000;1254;74904;-79
2023/09/14 09:48:43;;;;;;;11.90;9.40;;;;;;;34.20;37.36;99490.50;105988;1260;59848;-78
2023/09/14 09:51:11;;;;;;;13.80;9.20;;;;;;;34.45;36.99;99489.83;105982;1260;59656;-78
2023/09/14 09:54:04;;;;;;;14.60;10.10;;;;;;;34.63;36.90;99489.20;105675;1262;74993;-77
2023/09/14 09:56:35;;;;;;;15.40;9.80;;;;;;;34.93;36.70;99491.04;105697;1259;62798;-78
2023/09/14 09:59:05;;;;;;;;;;;;;;;35.27;36.32;99482.67;105741;1254;66362;-78
2023/09/14 10:01:33;;;;;;;11.90;9.20;;;;;;;35.46;36.01;99478.47;105909;1254;59651;-77
2023/09/14 10:04:01;;;;;;;13.00;9.60;;;;;;;35.70;35.71;99476.82;105684;1255;60031;-78
2023/09/14 10:06:28;;;;;;;13.70;8.90;;;;;;;35.94;35.28;99472.43;105568;1254;64178;-79
2023/09/14 10:09:01;;;;;;;11.50;10.00;;;;;;;36.11;35.04;99472.57;105629;1263;62536;-78
2023/09/14 10:11:29;;;;;;;11.60;10.00;;;;;;;36.30;35.03;99479.03;105884;1257;63913;-76
2023/09/14 10:13:56;;;;;;;11.40;8.80;;;;;;;36.58;34.71;99472.73;105606;1257;59673;-77
2023/09/14 10:16:24;;;;;;;11.40;8.80;;;;;;;36.86;33.97;99467.00;108567;1254;59985;-78
2023/09/14 10:18:53;;;;;;;12.50;9.80;;;;;;;37.02;34.41;99467.38;108321;1256;62825;-78
2023/09/14 10:21:22;;;;;;;14.60;9.10;;;;;;;37.36;33.88;99468.16;105814;1259;61336;-78
2023/09/14 10:23:50;;;;;;;11.80;9.90;;;;;;;37.47;33.28;99468.94;106102;1255;74861;-78
2023/09/14 10:26:18;;;;;;;11.10;9.90;;;;;;;37.33;33.61;99470.78;107491;1254;59569;-76
2023/09/14 10:28:46;;;;;;;14.00;9.60;;;;;;;37.26;33.42;99465.61;106882;1260;59506;-79
2023/09/14 10:31:14;;;;;;;13.30;9.90;;;;;;;37.12;33.89;99466.09;105732;1254;64146;-79
2023/09/14 10:33:49;;;;;;;9.90;8.50;;;;;;;37.03;33.72;99460.35;105673;1262;61379;-77
2023/09/14 10:36:16;;;;;;;13.00;9.40;;;;;;;36.83;33.87;99459.23;105685;1269;62555;-77
2023/09/14 10:38:44;;;;;;;14.20;9.60;;;;;;;36.50;34.25;99456.98;105849;1261;59775;-78
2023/09/14 10:41:13;;;;;;;10.20;8.70;;;;;;;36.11;34.38;99460.35;105749;1255;59643;-79
2023/09/14 10:43:41;;;;;;;11.50;8.70;;;;;;;35.53;34.72;99459.96;105897;1255;62910;-78
2023/09/14 10:46:14;;;;;;;13.90;9.40;;;;;;;35.14;35.64;99460.52;105910;1254;61859;-79
2023/09/14 10:48:41;;;;;;;9.70;8.70;;;;;;;35.11;35.76;99456.68;105695;1260;62538;-77
2023/09/14 10:51:09;;;;;;;13.60;9.40;;;;;;;35.36;35.55;99462.02;105806;1258;59696;-79
2023/09/14 10:53:36;;;;;;;10.70;8.70;;;;;;;35.81;35.09;99460.30;107456;1254;59496;-78
2023/09/14 10:56:04;;;;;;;14.30;9.00;;;;;;;36.24;34.71;99454.38;108100;1257;66563;-77
2023/09/14 10:58:42;;;;;;;11.00;7.90;;;;;;;36.61;34.10;99450.67;108035;1254;60379;-78
2023/09/14 11:01:11;;;;;;;9.10;8.20;;;;;;;37.02;33.50;99445.86;105974;1260;62459;-78
2023/09/14 11:04:07;;;;;;;12.10;8.50;;;;;;;37.46;33.11;99440.71;106266;1260;60552;-79
2023/09/14 11:06:44;;;;;;;8.80;7.90;;;;;;;38.05;32.79;99440.70;106073;1259;60522;-76
2023/09/14 11:09:16;;;;;;;10.70;8.30;;;;;;;38.43;32.60;99443.39;106025;1254;63635;-78
2023/09/14 11:11:45;;;;;;;10.00;7.50;;;;;;;38.70;32.01;99438.35;105826;1260;60511;-77
2023/09/14 11:14:14;;;;;;;9.60;7.80;;;;;;;39.13;31.56;99436.43;105830;1260;65296;-78
2023/09/14 11:16:46;;;;;;;9.40;8.20;;;;;;;39.71;30.97;99434.55;105762;1253;60513;-78
2023/09/14 11:19:30;;;;;;;10.10;7.30;;;;;;;40.22;30.52;99439.41;106017;1254;60408;-79
2023/09/14 11:22:01;;;;;;;12.10;8.00;;;;;;;40.64;29.76;99433.61;105677;1254;66185;-78